sensor_id;sensor_type;location;lat;lon;timestamp;P1;durP1;ratioP1;P2;durP2;ratioP2
59006;SDS011;44792;52.760;6.726;2023-03-17T00:01:14;5.53;;;2.65;;
59006;SDS011;44792;52.760;6.726;2023-03-17T00:03:40;3.15;;;2.72;;
59006;SDS011;44792;52.760;6.726;2023-03-17T00:06:10;3.85;;;2.95;;
59006;SDS011;44792;52.760;6.726;2023-03-17T00:08:40;7.55;;;3.05;;
59006;SDS011;44792;52.760;6.726;2023-03-17T00:11:14;4.15;;;3.00;;
59006;SDS011;44792;52.760;6.726;2023-03-17T00:13:41;2.97;;;2.63;;
59006;SDS011;44792;52.760;6.726;2023-03-17T00:16:18;4.07;;;2.72;;
59006;SDS011;44792;52.760;6.726;2023-03-17T00:18:49;3.20;;;2.90;;
59006;SDS011;44792;52.760;6.726;2023-03-17T00:21:17;3.58;;;2.92;;
59006;SDS011;44792;52.760;6.726;2023-03-17T00:23:49;3.53;;;2.95;;
59006;SDS011;44792;52.760;6.726;2023-03-17T00:26:18;3.70;;;2.88;;
59006;SDS011;44792;52.760;6.726;2023-03-17T00:28:44;5.35;;;2.60;;
59006;SDS011;44792;52.760;6.726;2023-03-17T00:31:17;4.32;;;2.88;;
59006;SDS011;44792;52.760;6.726;2023-03-17T00:33:45;3.85;;;2.97;;
59006;SDS011;44792;52.760;6.726;2023-03-17T00:36:16;8.05;;;3.10;;
59006;SDS011;44792;52.760;6.726;2023-03-17T00:38:49;3.25;;;2.90;;
59006;SDS011;44792;52.760;6.726;2023-03-17T00:41:16;5.43;;;3.15;;
59006;SDS011;44792;52.760;6.726;2023-03-17T00:43:42;8.80;;;3.72;;
59006;SDS011;44792;52.760;6.726;2023-03-17T00:46:12;3.40;;;3.10;;
59006;SDS011;44792;52.760;6.726;2023-03-17T00:48:40;5.28;;;2.97;;
59006;SDS011;44792;52.760;6.726;2023-03-17T00:51:07;6.78;;;3.15;;
59006;SDS011;44792;52.760;6.726;2023-03-17T00:53:33;5.35;;;3.15;;
59006;SDS011;44792;52.760;6.726;2023-03-17T00:56:00;3.88;;;3.05;;
59006;SDS011;44792;52.760;6.726;2023-03-17T00:58:27;5.07;;;2.70;;
59006;SDS011;44792;52.760;6.726;2023-03-17T01:00:53;6.85;;;3.00;;
59006;SDS011;44792;52.760;6.726;2023-03-17T01:03:19;4.90;;;2.92;;
59006;SDS011;44792;52.760;6.726;2023-03-17T01:05:45;4.20;;;2.90;;
59006;SDS011;44792;52.760;6.726;2023-03-17T01:08:13;5.07;;;3.15;;
59006;SDS011;44792;52.760;6.726;2023-03-17T01:10:39;8.43;;;3.30;;
59006;SDS011;44792;52.760;6.726;2023-03-17T01:13:05;6.20;;;2.95;;
59006;SDS011;44792;52.760;6.726;2023-03-17T01:15:31;3.42;;;2.97;;
59006;SDS011;44792;52.760;6.726;2023-03-17T01:17:58;6.97;;;2.92;;
59006;SDS011;44792;52.760;6.726;2023-03-17T01:20:26;4.65;;;2.63;;
59006;SDS011;44792;52.760;6.726;2023-03-17T01:22:54;3.70;;;2.85;;
59006;SDS011;44792;52.760;6.726;2023-03-17T01:25:21;5.88;;;2.83;;
59006;SDS011;44792;52.760;6.726;2023-03-17T01:27:47;8.15;;;3.72;;
59006;SDS011;44792;52.760;6.726;2023-03-17T01:30:20;5.32;;;3.03;;
59006;SDS011;44792;52.760;6.726;2023-03-17T01:32:48;3.75;;;2.88;;
59006;SDS011;44792;52.760;6.726;2023-03-17T01:35:14;4.35;;;3.28;;
59006;SDS011;44792;52.760;6.726;2023-03-17T01:37:40;5.75;;;2.72;;
59006;SDS011;44792;52.760;6.726;2023-03-17T01:40:06;3.50;;;2.92;;
59006;SDS011;44792;52.760;6.726;2023-03-17T01:42:36;4.63;;;3.40;;
59006;SDS011;44792;52.760;6.726;2023-03-17T01:45:07;5.82;;;3.03;;
59006;SDS011;44792;52.760;6.726;2023-03-17T01:48:07;4.50;;;2.65;;
59006;SDS011;44792;52.760;6.726;2023-03-17T01:50:33;3.85;;;3.08;;
59006;SDS011;44792;52.760;6.726;2023-03-17T01:52:58;6.45;;;3.30;;
59006;SDS011;44792;52.760;6.726;2023-03-17T01:55:24;5.35;;;3.33;;
59006;SDS011;44792;52.760;6.726;2023-03-17T01:57:50;5.07;;;3.38;;
59006;SDS011;44792;52.760;6.726;2023-03-17T02:00:19;5.85;;;3.30;;
59006;SDS011;44792;52.760;6.726;2023-03-17T02:02:50;5.57;;;3.00;;
59006;SDS011;44792;52.760;6.726;2023-03-17T02:05:20;3.13;;;2.83;;
59006;SDS011;44792;52.760;6.726;2023-03-17T02:07:50;4.57;;;2.80;;
59006;SDS011;44792;52.760;6.726;2023-03-17T02:10:16;5.30;;;3.00;;
59006;SDS011;44792;52.760;6.726;2023-03-17T02:12:44;4.10;;;3.00;;
59006;SDS011;44792;52.760;6.726;2023-03-17T02:15:15;4.55;;;3.03;;
59006;SDS011;44792;52.760;6.726;2023-03-17T02:17:41;3.35;;;2.70;;
59006;SDS011;44792;52.760;6.726;2023-03-17T02:22:53;7.22;;;3.22;;
59006;SDS011;44792;52.760;6.726;2023-03-17T02:25:21;6.00;;;3.10;;
59006;SDS011;44792;52.760;6.726;2023-03-17T02:27:49;6.82;;;3.10;;
59006;SDS011;44792;52.760;6.726;2023-03-17T02:30:19;5.25;;;3.00;;
59006;SDS011;44792;52.760;6.726;2023-03-17T02:32:46;7.35;;;2.53;;
59006;SDS011;44792;52.760;6.726;2023-03-17T02:35:12;3.80;;;3.25;;
59006;SDS011;44792;52.760;6.726;2023-03-17T02:37:38;7.88;;;3.33;;
59006;SDS011;44792;52.760;6.726;2023-03-17T02:40:04;4.80;;;2.97;;
59006;SDS011;44792;52.760;6.726;2023-03-17T02:42:31;5.57;;;2.88;;
59006;SDS011;44792;52.760;6.726;2023-03-17T02:44:58;4.70;;;3.20;;
59006;SDS011;44792;52.760;6.726;2023-03-17T02:47:24;3.72;;;2.33;;
59006;SDS011;44792;52.760;6.726;2023-03-17T02:49:51;3.80;;;2.90;;
59006;SDS011;44792;52.760;6.726;2023-03-17T02:52:18;3.65;;;2.88;;
59006;SDS011;44792;52.760;6.726;2023-03-17T02:54:43;5.32;;;3.00;;
59006;SDS011;44792;52.760;6.726;2023-03-17T02:57:09;3.42;;;2.88;;
59006;SDS011;44792;52.760;6.726;2023-03-17T02:59:35;5.88;;;3.67;;
59006;SDS011;44792;52.760;6.726;2023-03-17T03:02:00;4.68;;;3.55;;
59006;SDS011;44792;52.760;6.726;2023-03-17T03:04:26;4.43;;;2.90;;
59006;SDS011;44792;52.760;6.726;2023-03-17T03:06:52;6.20;;;3.50;;
59006;SDS011;44792;52.760;6.726;2023-03-17T03:09:18;7.10;;;3.67;;
59006;SDS011;44792;52.760;6.726;2023-03-17T03:11:45;5.13;;;3.25;;
59006;SDS011;44792;52.760;6.726;2023-03-17T03:14:11;5.15;;;3.40;;
59006;SDS011;44792;52.760;6.726;2023-03-17T03:16:37;3.15;;;2.85;;
59006;SDS011;44792;52.760;6.726;2023-03-17T03:19:04;5.30;;;3.60;;
59006;SDS011;44792;52.760;6.726;2023-03-17T03:21:31;5.50;;;3.60;;
59006;SDS011;44792;52.760;6.726;2023-03-17T03:23:56;5.78;;;3.53;;
59006;SDS011;44792;52.760;6.726;2023-03-17T03:26:22;3.90;;;3.45;;
59006;SDS011;44792;52.760;6.726;2023-03-17T03:28:48;4.68;;;3.40;;
59006;SDS011;44792;52.760;6.726;2023-03-17T03:31:14;4.72;;;3.47;;
59006;SDS011;44792;52.760;6.726;2023-03-17T03:33:40;6.75;;;3.65;;
59006;SDS011;44792;52.760;6.726;2023-03-17T03:36:06;4.28;;;3.50;;
59006;SDS011;44792;52.760;6.726;2023-03-17T03:38:33;4.30;;;3.55;;
59006;SDS011;44792;52.760;6.726;2023-03-17T03:40:59;5.20;;;3.53;;
59006;SDS011;44792;52.760;6.726;2023-03-17T03:43:25;6.13;;;3.55;;
59006;SDS011;44792;52.760;6.726;2023-03-17T03:45:51;6.03;;;3.28;;
59006;SDS011;44792;52.760;6.726;2023-03-17T03:48:19;3.45;;;3.13;;
59006;SDS011;44792;52.760;6.726;2023-03-17T03:50:45;5.20;;;3.40;;
59006;SDS011;44792;52.760;6.726;2023-03-17T03:53:11;6.45;;;3.38;;
59006;SDS011;44792;52.760;6.726;2023-03-17T03:55:38;4.85;;;3.33;;
59006;SDS011;44792;52.760;6.726;2023-03-17T03:58:03;11.38;;;3.70;;
59006;SDS011;44792;52.760;6.726;2023-03-17T04:00:29;5.72;;;3.15;;
59006;SDS011;44792;52.760;6.726;2023-03-17T04:02:54;5.95;;;3.13;;
59006;SDS011;44792;52.760;6.726;2023-03-17T04:05:20;3.72;;;3.05;;
59006;SDS011;44792;52.760;6.726;2023-03-17T04:07:46;5.20;;;3.03;;
59006;SDS011;44792;52.760;6.726;2023-03-17T04:10:12;3.63;;;2.72;;
59006;SDS011;44792;52.760;6.726;2023-03-17T04:12:40;5.13;;;3.13;;
59006;SDS011;44792;52.760;6.726;2023-03-17T04:15:07;4.35;;;2.97;;
59006;SDS011;44792;52.760;6.726;2023-03-17T04:17:34;2.92;;;2.60;;
59006;SDS011;44792;52.760;6.726;2023-03-17T04:20:00;3.10;;;2.40;;
59006;SDS011;44792;52.760;6.726;2023-03-17T04:22:26;3.85;;;2.90;;
59006;SDS011;44792;52.760;6.726;2023-03-17T04:24:52;5.05;;;3.10;;
59006;SDS011;44792;52.760;6.726;2023-03-17T04:27:17;6.38;;;2.70;;
59006;SDS011;44792;52.760;6.726;2023-03-17T04:29:43;6.80;;;2.85;;
59006;SDS011;44792;52.760;6.726;2023-03-17T04:32:12;2.78;;;2.42;;
59006;SDS011;44792;52.760;6.726;2023-03-17T04:34:38;5.95;;;2.50;;
59006;SDS011;44792;52.760;6.726;2023-03-17T04:37:05;3.70;;;3.05;;
59006;SDS011;44792;52.760;6.726;2023-03-17T04:39:32;4.28;;;2.97;;
59006;SDS011;44792;52.760;6.726;2023-03-17T04:41:57;3.13;;;2.83;;
59006;SDS011;44792;52.760;6.726;2023-03-17T04:44:23;5.13;;;2.28;;
59006;SDS011;44792;52.760;6.726;2023-03-17T04:46:48;3.65;;;2.80;;
59006;SDS011;44792;52.760;6.726;2023-03-17T04:49:14;3.50;;;2.80;;
59006;SDS011;44792;52.760;6.726;2023-03-17T04:51:40;3.72;;;2.20;;
59006;SDS011;44792;52.760;6.726;2023-03-17T04:54:06;4.95;;;2.83;;
59006;SDS011;44792;52.760;6.726;2023-03-17T04:56:32;3.85;;;2.65;;
59006;SDS011;44792;52.760;6.726;2023-03-17T04:58:58;4.70;;;2.97;;
59006;SDS011;44792;52.760;6.726;2023-03-17T05:01:24;5.25;;;2.97;;
59006;SDS011;44792;52.760;6.726;2023-03-17T05:03:50;4.10;;;3.00;;
59006;SDS011;44792;52.760;6.726;2023-03-17T05:06:15;4.53;;;2.70;;
59006;SDS011;44792;52.760;6.726;2023-03-17T05:08:41;4.32;;;2.60;;
59006;SDS011;44792;52.760;6.726;2023-03-17T05:11:09;3.85;;;2.92;;
59006;SDS011;44792;52.760;6.726;2023-03-17T05:13:35;4.65;;;2.97;;
59006;SDS011;44792;52.760;6.726;2023-03-17T05:16:00;3.58;;;2.80;;
59006;SDS011;44792;52.760;6.726;2023-03-17T05:18:26;3.47;;;2.83;;
59006;SDS011;44792;52.760;6.726;2023-03-17T05:20:52;3.55;;;2.58;;
59006;SDS011;44792;52.760;6.726;2023-03-17T05:23:18;6.55;;;2.80;;
59006;SDS011;44792;52.760;6.726;2023-03-17T05:25:44;4.63;;;3.00;;
59006;SDS011;44792;52.760;6.726;2023-03-17T05:28:10;4.93;;;2.80;;
59006;SDS011;44792;52.760;6.726;2023-03-17T05:30:37;4.25;;;3.25;;
59006;SDS011;44792;52.760;6.726;2023-03-17T05:33:03;4.82;;;2.90;;
59006;SDS011;44792;52.760;6.726;2023-03-17T05:35:29;3.75;;;2.80;;
59006;SDS011;44792;52.760;6.726;2023-03-17T05:37:54;4.25;;;2.72;;
59006;SDS011;44792;52.760;6.726;2023-03-17T05:40:20;3.83;;;2.65;;
59006;SDS011;44792;52.760;6.726;2023-03-17T05:42:47;3.38;;;2.70;;
59006;SDS011;44792;52.760;6.726;2023-03-17T05:45:14;3.22;;;2.92;;
59006;SDS011;44792;52.760;6.726;2023-03-17T05:47:40;5.47;;;3.30;;
59006;SDS011;44792;52.760;6.726;2023-03-17T05:50:06;6.18;;;2.92;;
59006;SDS011;44792;52.760;6.726;2023-03-17T05:52:33;9.65;;;3.40;;
59006;SDS011;44792;52.760;6.726;2023-03-17T05:54:59;5.22;;;3.30;;
59006;SDS011;44792;52.760;6.726;2023-03-17T05:57:24;6.63;;;2.88;;
59006;SDS011;44792;52.760;6.726;2023-03-17T05:59:50;4.35;;;2.97;;
59006;SDS011;44792;52.760;6.726;2023-03-17T06:02:15;4.35;;;2.67;;
59006;SDS011;44792;52.760;6.726;2023-03-17T06:04:41;4.90;;;3.47;;
59006;SDS011;44792;52.760;6.726;2023-03-17T06:07:07;4.78;;;3.08;;
59006;SDS011;44792;52.760;6.726;2023-03-17T06:09:34;4.10;;;2.65;;
59006;SDS011;44792;52.760;6.726;2023-03-17T06:12:00;3.55;;;3.03;;
59006;SDS011;44792;52.760;6.726;2023-03-17T06:14:26;3.17;;;2.28;;
59006;SDS011;44792;52.760;6.726;2023-03-17T06:16:51;5.35;;;2.85;;
59006;SDS011;44792;52.760;6.726;2023-03-17T06:19:17;3.72;;;3.22;;
59006;SDS011;44792;52.760;6.726;2023-03-17T06:21:42;4.47;;;3.20;;
59006;SDS011;44792;52.760;6.726;2023-03-17T06:24:08;3.28;;;2.97;;
59006;SDS011;44792;52.760;6.726;2023-03-17T06:26:34;5.72;;;3.10;;
59006;SDS011;44792;52.760;6.726;2023-03-17T06:29:01;3.00;;;2.70;;
59006;SDS011;44792;52.760;6.726;2023-03-17T06:31:33;5.63;;;3.63;;
59006;SDS011;44792;52.760;6.726;2023-03-17T06:33:58;3.60;;;2.88;;
59006;SDS011;44792;52.760;6.726;2023-03-17T06:36:24;4.25;;;3.72;;
59006;SDS011;44792;52.760;6.726;2023-03-17T06:38:49;5.10;;;3.30;;
59006;SDS011;44792;52.760;6.726;2023-03-17T06:41:15;3.78;;;2.75;;
59006;SDS011;44792;52.760;6.726;2023-03-17T06:43:41;5.38;;;3.08;;
59006;SDS011;44792;52.760;6.726;2023-03-17T06:46:06;4.25;;;2.78;;
59006;SDS011;44792;52.760;6.726;2023-03-17T06:48:32;5.88;;;2.72;;
59006;SDS011;44792;52.760;6.726;2023-03-17T06:50:58;5.60;;;2.95;;
59006;SDS011;44792;52.760;6.726;2023-03-17T06:53:24;5.95;;;4.50;;
59006;SDS011;44792;52.760;6.726;2023-03-17T06:55:50;5.68;;;3.50;;
59006;SDS011;44792;52.760;6.726;2023-03-17T06:58:16;4.05;;;3.13;;
59006;SDS011;44792;52.760;6.726;2023-03-17T07:00:42;4.22;;;2.83;;
59006;SDS011;44792;52.760;6.726;2023-03-17T07:03:09;6.85;;;3.00;;
59006;SDS011;44792;52.760;6.726;2023-03-17T07:05:35;4.38;;;2.60;;
59006;SDS011;44792;52.760;6.726;2023-03-17T07:08:03;5.85;;;2.97;;
59006;SDS011;44792;52.760;6.726;2023-03-17T07:10:29;4.63;;;2.70;;
59006;SDS011;44792;52.760;6.726;2023-03-17T07:12:55;4.55;;;3.42;;
59006;SDS011;44792;52.760;6.726;2023-03-17T07:15:21;7.25;;;2.85;;
59006;SDS011;44792;52.760;6.726;2023-03-17T07:17:46;4.35;;;3.20;;
59006;SDS011;44792;52.760;6.726;2023-03-17T07:20:12;5.90;;;2.95;;
59006;SDS011;44792;52.760;6.726;2023-03-17T07:22:38;5.47;;;3.70;;
59006;SDS011;44792;52.760;6.726;2023-03-17T07:25:04;4.82;;;3.25;;
59006;SDS011;44792;52.760;6.726;2023-03-17T07:27:30;4.90;;;2.78;;
59006;SDS011;44792;52.760;6.726;2023-03-17T07:29:56;6.22;;;3.10;;
59006;SDS011;44792;52.760;6.726;2023-03-17T07:32:21;4.47;;;3.00;;
59006;SDS011;44792;52.760;6.726;2023-03-17T07:34:47;6.43;;;3.40;;
59006;SDS011;44792;52.760;6.726;2023-03-17T07:37:13;4.63;;;3.00;;
59006;SDS011;44792;52.760;6.726;2023-03-17T07:39:39;6.85;;;3.22;;
59006;SDS011;44792;52.760;6.726;2023-03-17T07:42:04;6.28;;;3.22;;
59006;SDS011;44792;52.760;6.726;2023-03-17T07:44:30;5.97;;;3.10;;
59006;SDS011;44792;52.760;6.726;2023-03-17T07:46:57;5.75;;;2.95;;
59006;SDS011;44792;52.760;6.726;2023-03-17T07:49:22;5.93;;;3.25;;
59006;SDS011;44792;52.760;6.726;2023-03-17T07:51:48;6.07;;;3.90;;
59006;SDS011;44792;52.760;6.726;2023-03-17T07:54:14;5.85;;;2.90;;
59006;SDS011;44792;52.760;6.726;2023-03-17T07:56:40;4.90;;;3.20;;
59006;SDS011;44792;52.760;6.726;2023-03-17T07:59:06;3.83;;;2.85;;
59006;SDS011;44792;52.760;6.726;2023-03-17T08:01:33;5.05;;;3.28;;
59006;SDS011;44792;52.760;6.726;2023-03-17T08:03:59;4.20;;;3.22;;
59006;SDS011;44792;52.760;6.726;2023-03-17T08:06:24;5.88;;;3.40;;
59006;SDS011;44792;52.760;6.726;2023-03-17T08:08:51;5.05;;;3.33;;
59006;SDS011;44792;52.760;6.726;2023-03-17T08:11:20;7.03;;;3.20;;
59006;SDS011;44792;52.760;6.726;2023-03-17T08:13:47;4.53;;;3.65;;
59006;SDS011;44792;52.760;6.726;2023-03-17T08:16:13;6.85;;;3.67;;
59006;SDS011;44792;52.760;6.726;2023-03-17T08:18:40;6.15;;;3.58;;
59006;SDS011;44792;52.760;6.726;2023-03-17T08:21:05;6.03;;;3.13;;
59006;SDS011;44792;52.760;6.726;2023-03-17T08:23:31;8.52;;;3.88;;
59006;SDS011;44792;52.760;6.726;2023-03-17T08:25:57;5.80;;;3.78;;
59006;SDS011;44792;52.760;6.726;2023-03-17T08:28:24;4.80;;;3.92;;
59006;SDS011;44792;52.760;6.726;2023-03-17T08:30:51;6.22;;;3.70;;
59006;SDS011;44792;52.760;6.726;2023-03-17T08:33:16;8.02;;;3.70;;
59006;SDS011;44792;52.760;6.726;2023-03-17T08:35:42;6.32;;;3.38;;
59006;SDS011;44792;52.760;6.726;2023-03-17T08:38:08;4.75;;;3.22;;
59006;SDS011;44792;52.760;6.726;2023-03-17T08:40:34;3.38;;;3.08;;
59006;SDS011;44792;52.760;6.726;2023-03-17T08:43:01;8.63;;;3.17;;
59006;SDS011;44792;52.760;6.726;2023-03-17T08:45:27;4.63;;;3.30;;
59006;SDS011;44792;52.760;6.726;2023-03-17T08:47:52;5.85;;;3.30;;
59006;SDS011;44792;52.760;6.726;2023-03-17T08:50:19;5.25;;;3.30;;
59006;SDS011;44792;52.760;6.726;2023-03-17T08:52:46;4.85;;;3.20;;
59006;SDS011;44792;52.760;6.726;2023-03-17T08:55:13;6.13;;;3.65;;
59006;SDS011;44792;52.760;6.726;2023-03-17T08:57:40;6.05;;;3.95;;
59006;SDS011;44792;52.760;6.726;2023-03-17T09:00:09;4.95;;;3.67;;
59006;SDS011;44792;52.760;6.726;2023-03-17T09:02:40;7.22;;;3.58;;
59006;SDS011;44792;52.760;6.726;2023-03-17T09:05:07;5.63;;;3.60;;
59006;SDS011;44792;52.760;6.726;2023-03-17T09:07:35;5.05;;;3.55;;
59006;SDS011;44792;52.760;6.726;2023-03-17T09:10:01;12.32;;;4.50;;
59006;SDS011;44792;52.760;6.726;2023-03-17T09:12:28;6.22;;;3.60;;
59006;SDS011;44792;52.760;6.726;2023-03-17T09:14:54;9.20;;;3.63;;
59006;SDS011;44792;52.760;6.726;2023-03-17T09:17:20;6.25;;;3.67;;
59006;SDS011;44792;52.760;6.726;2023-03-17T09:19:46;8.93;;;3.97;;
59006;SDS011;44792;52.760;6.726;2023-03-17T09:22:12;6.82;;;3.78;;
59006;SDS011;44792;52.760;6.726;2023-03-17T09:24:40;6.65;;;3.67;;
59006;SDS011;44792;52.760;6.726;2023-03-17T09:27:06;7.05;;;3.70;;
59006;SDS011;44792;52.760;6.726;2023-03-17T09:29:31;9.05;;;3.33;;
59006;SDS011;44792;52.760;6.726;2023-03-17T09:31:58;6.72;;;3.63;;
59006;SDS011;44792;52.760;6.726;2023-03-17T09:34:24;4.82;;;3.40;;
59006;SDS011;44792;52.760;6.726;2023-03-17T09:36:51;8.38;;;3.85;;
59006;SDS011;44792;52.760;6.726;2023-03-17T09:39:18;6.85;;;4.18;;
59006;SDS011;44792;52.760;6.726;2023-03-17T09:49:49;5.57;;;4.00;;
59006;SDS011;44792;52.760;6.726;2023-03-17T09:52:30;8.07;;;3.80;;
59006;SDS011;44792;52.760;6.726;2023-03-17T09:54:58;11.13;;;4.03;;
59006;SDS011;44792;52.760;6.726;2023-03-17T09:57:29;6.90;;;3.55;;
59006;SDS011;44792;52.760;6.726;2023-03-17T10:00:18;5.72;;;3.75;;
59006;SDS011;44792;52.760;6.726;2023-03-17T10:02:50;8.27;;;3.93;;
59006;SDS011;44792;52.760;6.726;2023-03-17T10:15:43;6.35;;;4.07;;
59006;SDS011;44792;52.760;6.726;2023-03-17T10:18:15;9.18;;;4.15;;
59006;SDS011;44792;52.760;6.726;2023-03-17T10:20:50;6.93;;;4.10;;
59006;SDS011;44792;52.760;6.726;2023-03-17T10:23:24;9.23;;;4.95;;
59006;SDS011;44792;52.760;6.726;2023-03-17T10:25:54;7.88;;;4.45;;
59006;SDS011;44792;52.760;6.726;2023-03-17T10:28:27;9.65;;;5.57;;
59006;SDS011;44792;52.760;6.726;2023-03-17T10:31:12;10.13;;;3.95;;
59006;SDS011;44792;52.760;6.726;2023-03-17T10:33:52;8.48;;;4.45;;
59006;SDS011;44792;52.760;6.726;2023-03-17T10:36:32;8.07;;;4.03;;
59006;SDS011;44792;52.760;6.726;2023-03-17T10:39:01;5.30;;;3.92;;
59006;SDS011;44792;52.760;6.726;2023-03-17T10:41:35;6.53;;;4.10;;
59006;SDS011;44792;52.760;6.726;2023-03-17T10:44:08;6.30;;;4.40;;
59006;SDS011;44792;52.760;6.726;2023-03-17T10:46:44;5.82;;;3.60;;
59006;SDS011;44792;52.760;6.726;2023-03-17T10:49:18;6.07;;;4.03;;
59006;SDS011;44792;52.760;6.726;2023-03-17T10:51:47;5.75;;;3.97;;
59006;SDS011;44792;52.760;6.726;2023-03-17T10:54:18;7.68;;;4.00;;
59006;SDS011;44792;52.760;6.726;2023-03-17T10:56:45;6.30;;;4.40;;
59006;SDS011;44792;52.760;6.726;2023-03-17T10:59:29;8.77;;;4.85;;
59006;SDS011;44792;52.760;6.726;2023-03-17T11:02:05;10.02;;;5.35;;
59006;SDS011;44792;52.760;6.726;2023-03-17T11:04:44;12.10;;;4.45;;
59006;SDS011;44792;52.760;6.726;2023-03-17T11:09:44;7.80;;;4.40;;
59006;SDS011;44792;52.760;6.726;2023-03-17T11:14:58;8.30;;;4.70;;
59006;SDS011;44792;52.760;6.726;2023-03-17T11:17:36;8.17;;;4.60;;
59006;SDS011;44792;52.760;6.726;2023-03-17T11:29:12;6.20;;;4.15;;
59006;SDS011;44792;52.760;6.726;2023-03-17T11:32:35;10.70;;;4.28;;
59006;SDS011;44792;52.760;6.726;2023-03-17T11:37:47;8.38;;;4.28;;
59006;SDS011;44792;52.760;6.726;2023-03-17T11:43:26;5.72;;;3.35;;
59006;SDS011;44792;52.760;6.726;2023-03-17T11:46:04;7.07;;;3.92;;
59006;SDS011;44792;52.760;6.726;2023-03-17T11:54:08;7.63;;;4.00;;
59006;SDS011;44792;52.760;6.726;2023-03-17T11:59:33;8.90;;;3.97;;
59006;SDS011;44792;52.760;6.726;2023-03-17T12:02:06;5.72;;;3.70;;
59006;SDS011;44792;52.760;6.726;2023-03-17T12:10:29;16.30;;;5.07;;
59006;SDS011;44792;52.760;6.726;2023-03-17T12:13:08;6.57;;;3.83;;
59006;SDS011;44792;52.760;6.726;2023-03-17T12:20:57;10.63;;;4.57;;
59006;SDS011;44792;52.760;6.726;2023-03-17T12:26:20;7.68;;;4.55;;
59006;SDS011;44792;52.760;6.726;2023-03-17T12:28:57;6.75;;;4.32;;
59006;SDS011;44792;52.760;6.726;2023-03-17T12:31:31;6.88;;;4.10;;
59006;SDS011;44792;52.760;6.726;2023-03-17T12:34:05;6.57;;;3.85;;
59006;SDS011;44792;52.760;6.726;2023-03-17T12:36:42;6.63;;;3.75;;
59006;SDS011;44792;52.760;6.726;2023-03-17T12:39:30;7.55;;;4.00;;
59006;SDS011;44792;52.760;6.726;2023-03-17T12:41:59;8.48;;;4.20;;
59006;SDS011;44792;52.760;6.726;2023-03-17T12:44:39;5.90;;;4.20;;
59006;SDS011;44792;52.760;6.726;2023-03-17T12:47:31;6.25;;;4.00;;
59006;SDS011;44792;52.760;6.726;2023-03-17T12:55:40;7.07;;;3.78;;
59006;SDS011;44792;52.760;6.726;2023-03-17T13:00:47;5.72;;;3.72;;
59006;SDS011;44792;52.760;6.726;2023-03-17T13:03:24;8.30;;;3.88;;
59006;SDS011;44792;52.760;6.726;2023-03-17T13:05:52;7.50;;;4.40;;
59006;SDS011;44792;52.760;6.726;2023-03-17T13:08:24;10.10;;;4.20;;
59006;SDS011;44792;52.760;6.726;2023-03-17T13:11:12;6.75;;;4.30;;
59006;SDS011;44792;52.760;6.726;2023-03-17T13:13:46;6.30;;;3.80;;
59006;SDS011;44792;52.760;6.726;2023-03-17T13:16:38;7.72;;;4.82;;
59006;SDS011;44792;52.760;6.726;2023-03-17T13:21:49;6.55;;;4.30;;
59006;SDS011;44792;52.760;6.726;2023-03-17T13:26:58;8.57;;;4.70;;
59006;SDS011;44792;52.760;6.726;2023-03-17T13:34:50;7.22;;;3.90;;
59006;SDS011;44792;52.760;6.726;2023-03-17T13:40:33;8.00;;;3.72;;
59006;SDS011;44792;52.760;6.726;2023-03-17T13:43:48;10.98;;;4.88;;
59006;SDS011;44792;52.760;6.726;2023-03-17T13:46:42;10.32;;;4.82;;
59006;SDS011;44792;52.760;6.726;2023-03-17T13:48:52;8.40;;;3.70;;
59006;SDS011;44792;52.760;6.726;2023-03-17T13:53:53;7.63;;;4.20;;
59006;SDS011;44792;52.760;6.726;2023-03-17T13:58:50;10.18;;;4.70;;
59006;SDS011;44792;52.760;6.726;2023-03-17T14:04:25;7.18;;;4.60;;
59006;SDS011;44792;52.760;6.726;2023-03-17T14:06:54;8.60;;;4.05;;
59006;SDS011;44792;52.760;6.726;2023-03-17T14:09:26;8.90;;;4.53;;
59006;SDS011;44792;52.760;6.726;2023-03-17T14:11:53;6.47;;;3.95;;
59006;SDS011;44792;52.760;6.726;2023-03-17T14:14:44;8.45;;;4.90;;
59006;SDS011;44792;52.760;6.726;2023-03-17T14:17:33;10.68;;;4.43;;
59006;SDS011;44792;52.760;6.726;2023-03-17T14:22:43;7.93;;;4.38;;
59006;SDS011;44792;52.760;6.726;2023-03-17T14:25:14;8.68;;;4.80;;
59006;SDS011;44792;52.760;6.726;2023-03-17T14:27:46;7.97;;;4.35;;
59006;SDS011;44792;52.760;6.726;2023-03-17T14:30:15;8.43;;;4.47;;
59006;SDS011;44792;52.760;6.726;2023-03-17T14:32:47;9.15;;;5.60;;
59006;SDS011;44792;52.760;6.726;2023-03-17T14:35:16;7.25;;;4.50;;
59006;SDS011;44792;52.760;6.726;2023-03-17T14:37:42;9.88;;;4.10;;
59006;SDS011;44792;52.760;6.726;2023-03-17T14:40:18;7.53;;;4.25;;
59006;SDS011;44792;52.760;6.726;2023-03-17T14:42:46;8.93;;;4.50;;
59006;SDS011;44792;52.760;6.726;2023-03-17T14:45:25;7.82;;;4.45;;
59006;SDS011;44792;52.760;6.726;2023-03-17T14:47:54;7.13;;;4.15;;
59006;SDS011;44792;52.760;6.726;2023-03-17T14:50:29;9.88;;;4.60;;
59006;SDS011;44792;52.760;6.726;2023-03-17T14:52:57;9.55;;;5.45;;
59006;SDS011;44792;52.760;6.726;2023-03-17T14:55:34;8.98;;;4.57;;
59006;SDS011;44792;52.760;6.726;2023-03-17T14:58:21;9.25;;;4.30;;
59006;SDS011;44792;52.760;6.726;2023-03-17T15:01:01;8.35;;;4.40;;
59006;SDS011;44792;52.760;6.726;2023-03-17T15:03:55;6.90;;;4.50;;
59006;SDS011;44792;52.760;6.726;2023-03-17T15:06:46;7.10;;;3.97;;
59006;SDS011;44792;52.760;6.726;2023-03-17T15:09:27;9.95;;;4.85;;
59006;SDS011;44792;52.760;6.726;2023-03-17T15:12:43;7.35;;;4.32;;
59006;SDS011;44792;52.760;6.726;2023-03-17T15:14:46;7.07;;;4.28;;
59006;SDS011;44792;52.760;6.726;2023-03-17T15:17:16;9.07;;;5.00;;
59006;SDS011;44792;52.760;6.726;2023-03-17T15:19:45;8.18;;;4.75;;
59006;SDS011;44792;52.760;6.726;2023-03-17T15:27:40;9.95;;;5.10;;
59006;SDS011;44792;52.760;6.726;2023-03-17T15:30:07;9.30;;;4.80;;
59006;SDS011;44792;52.760;6.726;2023-03-17T15:32:33;7.57;;;4.05;;
59006;SDS011;44792;52.760;6.726;2023-03-17T15:34:59;7.70;;;4.88;;
59006;SDS011;44792;52.760;6.726;2023-03-17T15:37:26;8.80;;;5.07;;
59006;SDS011;44792;52.760;6.726;2023-03-17T15:39:53;12.70;;;4.88;;
59006;SDS011;44792;52.760;6.726;2023-03-17T15:42:20;7.78;;;4.40;;
59006;SDS011;44792;52.760;6.726;2023-03-17T15:44:49;10.38;;;4.90;;
59006;SDS011;44792;52.760;6.726;2023-03-17T15:47:16;7.60;;;4.55;;
59006;SDS011;44792;52.760;6.726;2023-03-17T15:49:44;7.32;;;4.60;;
59006;SDS011;44792;52.760;6.726;2023-03-17T15:52:18;8.07;;;4.68;;
59006;SDS011;44792;52.760;6.726;2023-03-17T15:54:46;7.70;;;4.53;;
59006;SDS011;44792;52.760;6.726;2023-03-17T15:57:12;10.90;;;5.35;;
59006;SDS011;44792;52.760;6.726;2023-03-17T15:59:39;14.95;;;5.10;;
59006;SDS011;44792;52.760;6.726;2023-03-17T16:02:38;8.70;;;4.93;;
59006;SDS011;44792;52.760;6.726;2023-03-17T16:05:03;9.57;;;5.20;;
59006;SDS011;44792;52.760;6.726;2023-03-17T16:07:39;8.70;;;4.68;;
59006;SDS011;44792;52.760;6.726;2023-03-17T16:10:13;8.20;;;4.88;;
59006;SDS011;44792;52.760;6.726;2023-03-17T16:12:47;7.75;;;5.40;;
59006;SDS011;44792;52.760;6.726;2023-03-17T16:15:20;10.32;;;5.45;;
59006;SDS011;44792;52.760;6.726;2023-03-17T16:17:52;11.20;;;5.43;;
59006;SDS011;44792;52.760;6.726;2023-03-17T16:20:54;12.02;;;4.88;;
59006;SDS011;44792;52.760;6.726;2023-03-17T16:23:20;10.20;;;4.78;;
59006;SDS011;44792;52.760;6.726;2023-03-17T16:25:48;7.55;;;4.60;;
59006;SDS011;44792;52.760;6.726;2023-03-17T16:28:32;9.57;;;5.13;;
59006;SDS011;44792;52.760;6.726;2023-03-17T16:30:58;11.50;;;6.20;;
59006;SDS011;44792;52.760;6.726;2023-03-17T16:33:26;9.55;;;5.00;;
59006;SDS011;44792;52.760;6.726;2023-03-17T16:35:57;10.30;;;5.30;;
59006;SDS011;44792;52.760;6.726;2023-03-17T16:38:28;7.90;;;4.13;;
59006;SDS011;44792;52.760;6.726;2023-03-17T16:40:59;9.05;;;4.40;;
59006;SDS011;44792;52.760;6.726;2023-03-17T16:43:31;8.38;;;5.05;;